Terminal Aerodrome Forecast
Issued by NWS

Home | Current Version | Previous Version | Text Only | Print | Product List | Glossary On
Versions: 1 2 3 4 5 6 7 8 9 10 11 12 13 14 15 16 17 18 19
000
FTUS41 KPHI 032320
TAFMIV
TAF
KMIV 032320Z 0400/0424 11005KT P6SM FEW050 BKN300
      TEMPO 0401/0405 4SM BR
     FM040500 00000KT 3SM BR BKN250
     FM040900 VRB02KT 1SM BR SCT050
     FM041200 05004KT P6SM BKN050
     FM041600 08011KT P6SM BKN045=

USA.gov is the U.S. government's official web portal to all federal, state and local government web resources and services.